sensor_id;sensor_type;location;lat;lon;timestamp;temperature;humidity
1297;DHT22;641;48.492;9.184;2022-11-25T05:59:24;4.70;99.90
1297;DHT22;641;48.492;9.184;2022-11-25T06:01:52;4.90;99.90
1297;DHT22;641;48.492;9.184;2022-11-25T06:04:18;4.80;99.90
1297;DHT22;641;48.492;9.184;2022-11-25T07:33:21;5.20;99.90
1297;DHT22;641;48.492;9.184;2022-11-25T07:35:47;5.40;99.90
1297;DHT22;641;48.492;9.184;2022-11-25T07:38:12;5.30;99.90
1297;DHT22;641;48.492;9.184;2022-11-25T07:40:38;5.40;99.90
1297;DHT22;641;48.492;9.184;2022-11-25T07:43:03;5.20;99.90
1297;DHT22;641;48.492;9.184;2022-11-25T07:45:29;5.20;99.90
1297;DHT22;641;48.492;9.184;2022-11-25T07:47:55;5.30;99.90
1297;DHT22;641;48.492;9.184;2022-11-25T07:50:20;5.50;99.90
1297;DHT22;641;48.492;9.184;2022-11-25T07:52:46;5.60;99.90
1297;DHT22;641;48.492;9.184;2022-11-25T07:55:11;5.70;99.90
1297;DHT22;641;48.492;9.184;2022-11-25T07:57:37;5.80;99.90
1297;DHT22;641;48.492;9.184;2022-11-25T08:00:03;5.90;99.90
1297;DHT22;641;48.492;9.184;2022-11-25T08:02:29;5.90;99.90
1297;DHT22;641;48.492;9.184;2022-11-25T08:04:54;6.20;99.90
1297;DHT22;641;48.492;9.184;2022-11-25T08:07:20;5.70;99.90
1297;DHT22;641;48.492;9.184;2022-11-25T08:09:46;5.40;99.90
1297;DHT22;641;48.492;9.184;2022-11-25T08:12:11;5.40;99.90
1297;DHT22;641;48.492;9.184;2022-11-25T08:14:37;5.40;99.90
1297;DHT22;641;48.492;9.184;2022-11-25T08:17:02;5.30;99.90
1297;DHT22;641;48.492;9.184;2022-11-25T08:19:30;5.10;99.90
1297;DHT22;641;48.492;9.184;2022-11-25T08:21:56;5.00;99.90
1297;DHT22;641;48.492;9.184;2022-11-25T08:24:22;5.10;99.90
1297;DHT22;641;48.492;9.184;2022-11-25T08:26:47;5.30;99.90
1297;DHT22;641;48.492;9.184;2022-11-25T08:29:15;5.40;99.90
1297;DHT22;641;48.492;9.184;2022-11-25T08:31:41;5.00;99.90
1297;DHT22;641;48.492;9.184;2022-11-25T08:34:07;5.30;99.90
1297;DHT22;641;48.492;9.184;2022-11-25T08:36:33;5.70;99.90
1297;DHT22;641;48.492;9.184;2022-11-25T08:39:01;6.00;99.90
1297;DHT22;641;48.492;9.184;2022-11-25T08:41:30;6.20;99.90
1297;DHT22;641;48.492;9.184;2022-11-25T08:43:59;6.30;99.90
1297;DHT22;641;48.492;9.184;2022-11-25T08:46:28;6.50;99.90
1297;DHT22;641;48.492;9.184;2022-11-25T08:48:54;6.60;99.90
1297;DHT22;641;48.492;9.184;2022-11-25T08:51:23;6.70;99.90
1297;DHT22;641;48.492;9.184;2022-11-25T08:53:49;6.90;99.90
1297;DHT22;641;48.492;9.184;2022-11-25T08:56:19;6.90;99.90
1297;DHT22;641;48.492;9.184;2022-11-25T08:58:45;7.00;99.90
1297;DHT22;641;48.492;9.184;2022-11-25T09:01:11;6.80;99.90
1297;DHT22;641;48.492;9.184;2022-11-25T09:03:40;6.30;99.90
1297;DHT22;641;48.492;9.184;2022-11-25T09:06:07;5.80;99.90
1297;DHT22;641;48.492;9.184;2022-11-25T09:08:32;5.50;99.90
1297;DHT22;641;48.492;9.184;2022-11-25T09:10:58;5.20;99.90
1297;DHT22;641;48.492;9.184;2022-11-25T09:13:24;5.40;99.90
1297;DHT22;641;48.492;9.184;2022-11-25T09:15:50;5.40;99.90
1297;DHT22;641;48.492;9.184;2022-11-25T09:18:15;5.60;99.90
1297;DHT22;641;48.492;9.184;2022-11-25T09:20:43;5.50;99.90
1297;DHT22;641;48.492;9.184;2022-11-25T09:23:09;5.50;99.90
1297;DHT22;641;48.492;9.184;2022-11-25T09:25:35;5.70;99.90
1297;DHT22;641;48.492;9.184;2022-11-25T09:28:00;5.30;99.90
1297;DHT22;641;48.492;9.184;2022-11-25T09:30:26;5.10;99.90
1297;DHT22;641;48.492;9.184;2022-11-25T09:32:53;5.40;99.90
1297;DHT22;641;48.492;9.184;2022-11-25T09:35:19;5.70;99.90
1297;DHT22;641;48.492;9.184;2022-11-25T09:37:45;6.30;99.90
1297;DHT22;641;48.492;9.184;2022-11-25T09:40:20;6.60;99.90
1297;DHT22;641;48.492;9.184;2022-11-25T09:42:52;6.50;99.90
1297;DHT22;641;48.492;9.184;2022-11-25T09:49:25;7.40;99.90
1297;DHT22;641;48.492;9.184;2022-11-25T09:54:43;7.90;99.90
1297;DHT22;641;48.492;9.184;2022-11-25T10:00:12;8.40;99.90
1297;DHT22;641;48.492;9.184;2022-11-25T10:02:40;8.00;99.90
1297;DHT22;641;48.492;9.184;2022-11-25T10:05:27;8.10;99.90
1297;DHT22;641;48.492;9.184;2022-11-25T10:07:58;8.40;99.90
1297;DHT22;641;48.492;9.184;2022-11-25T10:10:46;8.60;99.90
1297;DHT22;641;48.492;9.184;2022-11-25T10:13:21;9.00;99.90
1297;DHT22;641;48.492;9.184;2022-11-25T10:15:50;8.80;99.90
1297;DHT22;641;48.492;9.184;2022-11-25T10:18:22;9.00;99.90
1297;DHT22;641;48.492;9.184;2022-11-25T10:20:51;9.20;99.90
1297;DHT22;641;48.492;9.184;2022-11-25T10:25:52;9.30;99.90
1297;DHT22;641;48.492;9.184;2022-11-25T10:28:23;9.30;99.90
1297;DHT22;641;48.492;9.184;2022-11-25T10:30:50;9.20;99.90
1297;DHT22;641;48.492;9.184;2022-11-25T10:33:21;9.20;99.90
1297;DHT22;641;48.492;9.184;2022-11-25T10:38:26;8.40;99.90
1297;DHT22;641;48.492;9.184;2022-11-25T10:40:54;8.20;99.90
1297;DHT22;641;48.492;9.184;2022-11-25T10:43:20;8.40;99.90
1297;DHT22;641;48.492;9.184;2022-11-25T10:48:59;9.00;99.90
1297;DHT22;641;48.492;9.184;2022-11-25T10:51:37;9.00;99.90
1297;DHT22;641;48.492;9.184;2022-11-25T10:54:21;9.10;99.90
1297;DHT22;641;48.492;9.184;2022-11-25T10:56:55;9.10;99.90
1297;DHT22;641;48.492;9.184;2022-11-25T10:59:37;8.80;99.90
1297;DHT22;641;48.492;9.184;2022-11-25T11:02:27;8.70;99.90
1297;DHT22;641;48.492;9.184;2022-11-25T11:04:56;8.80;99.90
1297;DHT22;641;48.492;9.184;2022-11-25T11:07:43;8.70;99.90
1297;DHT22;641;48.492;9.184;2022-11-25T11:15:23;9.70;99.90
1297;DHT22;641;48.492;9.184;2022-11-25T11:17:49;9.40;99.90
1297;DHT22;641;48.492;9.184;2022-11-25T11:20:30;9.60;99.90
1297;DHT22;641;48.492;9.184;2022-11-25T11:23:01;9.50;99.90
1297;DHT22;641;48.492;9.184;2022-11-25T11:25:29;9.60;99.90
1297;DHT22;641;48.492;9.184;2022-11-25T11:27:55;9.60;99.90
1297;DHT22;641;48.492;9.184;2022-11-25T11:30:52;9.80;99.90
1297;DHT22;641;48.492;9.184;2022-11-25T11:41:49;10.10;99.90
1297;DHT22;641;48.492;9.184;2022-11-25T11:44:29;10.10;99.90
1297;DHT22;641;48.492;9.184;2022-11-25T11:47:37;10.10;99.90
1297;DHT22;641;48.492;9.184;2022-11-25T11:50:25;10.20;99.90
1297;DHT22;641;48.492;9.184;2022-11-25T11:52:54;10.20;99.90
1297;DHT22;641;48.492;9.184;2022-11-25T12:12:51;10.80;99.90
1297;DHT22;641;48.492;9.184;2022-11-25T12:18:43;10.80;99.90
1297;DHT22;641;48.492;9.184;2022-11-25T12:21:23;10.70;99.90
1297;DHT22;641;48.492;9.184;2022-11-25T12:26:59;10.60;99.90
1297;DHT22;641;48.492;9.184;2022-11-25T12:29:43;10.60;99.90
1297;DHT22;641;48.492;9.184;2022-11-25T12:32:31;10.70;99.90
1297;DHT22;641;48.492;9.184;2022-11-25T12:35:00;10.80;99.90
1297;DHT22;641;48.492;9.184;2022-11-25T12:37:35;10.70;99.90
1297;DHT22;641;48.492;9.184;2022-11-25T12:40:06;10.60;99.90
1297;DHT22;641;48.492;9.184;2022-11-25T12:42:38;10.60;99.90
1297;DHT22;641;48.492;9.184;2022-11-25T12:45:22;10.70;99.90
1297;DHT22;641;48.492;9.184;2022-11-25T12:47:48;10.70;99.90
1297;DHT22;641;48.492;9.184;2022-11-25T12:50:22;10.80;99.90
1297;DHT22;641;48.492;9.184;2022-11-25T12:53:22;10.90;99.90
1297;DHT22;641;48.492;9.184;2022-11-25T12:55:52;11.00;99.90
1297;DHT22;641;48.492;9.184;2022-11-25T12:58:40;10.90;99.90
1297;DHT22;641;48.492;9.184;2022-11-25T13:01:48;10.90;99.90
1297;DHT22;641;48.492;9.184;2022-11-25T13:07:16;11.10;99.90
1297;DHT22;641;48.492;9.184;2022-11-25T13:10:31;11.20;99.90
1297;DHT22;641;48.492;9.184;2022-11-25T13:13:45;11.40;99.90
1297;DHT22;641;48.492;9.184;2022-11-25T13:16:14;11.50;99.90
1297;DHT22;641;48.492;9.184;2022-11-25T13:18:43;11.60;99.90
1297;DHT22;641;48.492;9.184;2022-11-25T13:30:47;11.20;99.90
1297;DHT22;641;48.492;9.184;2022-11-25T13:36:20;11.20;99.90
1297;DHT22;641;48.492;9.184;2022-11-25T13:38:58;11.30;99.90
1297;DHT22;641;48.492;9.184;2022-11-25T13:53:51;11.00;99.90
1297;DHT22;641;48.492;9.184;2022-11-25T13:59:19;11.30;99.90
1297;DHT22;641;48.492;9.184;2022-11-25T14:15:40;11.30;99.90
1297;DHT22;641;48.492;9.184;2022-11-25T14:18:35;11.30;99.90
1297;DHT22;641;48.492;9.184;2022-11-25T14:26:52;11.10;99.90
1297;DHT22;641;48.492;9.184;2022-11-25T14:29:47;11.20;99.90
1297;DHT22;641;48.492;9.184;2022-11-25T14:32:19;11.40;99.90
1297;DHT22;641;48.492;9.184;2022-11-25T14:34:49;11.30;99.90
1297;DHT22;641;48.492;9.184;2022-11-25T14:37:27;11.10;99.90
1297;DHT22;641;48.492;9.184;2022-11-25T14:40:10;11.00;99.90
1297;DHT22;641;48.492;9.184;2022-11-25T14:42:41;10.90;99.90
1297;DHT22;641;48.492;9.184;2022-11-25T14:45:21;11.20;99.90
1297;DHT22;641;48.492;9.184;2022-11-25T14:47:47;10.90;99.90
1297;DHT22;641;48.492;9.184;2022-11-25T14:50:14;10.70;99.90
1297;DHT22;641;48.492;9.184;2022-11-25T14:52:40;10.70;99.90
1297;DHT22;641;48.492;9.184;2022-11-25T14:55:11;10.60;99.90
1297;DHT22;641;48.492;9.184;2022-11-25T14:57:42;10.60;99.90
1297;DHT22;641;48.492;9.184;2022-11-25T15:00:13;10.50;99.90
1297;DHT22;641;48.492;9.184;2022-11-25T15:03:00;10.50;99.90
1297;DHT22;641;48.492;9.184;2022-11-25T15:05:37;10.70;99.90
1297;DHT22;641;48.492;9.184;2022-11-25T15:08:15;10.10;99.90
1297;DHT22;641;48.492;9.184;2022-11-25T15:13:31;10.00;99.90
1297;DHT22;641;48.492;9.184;2022-11-25T15:16:21;9.80;99.90
1297;DHT22;641;48.492;9.184;2022-11-25T15:18:48;10.00;99.90
1297;DHT22;641;48.492;9.184;2022-11-25T15:21:16;10.10;99.90
1297;DHT22;641;48.492;9.184;2022-11-25T15:23:43;10.30;99.90
1297;DHT22;641;48.492;9.184;2022-11-25T15:26:20;10.20;99.90
1297;DHT22;641;48.492;9.184;2022-11-25T15:28:56;10.20;99.90
1297;DHT22;641;48.492;9.184;2022-11-25T15:31:29;10.20;99.90
1297;DHT22;641;48.492;9.184;2022-11-25T15:33:59;9.90;99.90
1297;DHT22;641;48.492;9.184;2022-11-25T15:36:25;10.00;99.90
1297;DHT22;641;48.492;9.184;2022-11-25T15:38:51;10.10;99.90
1297;DHT22;641;48.492;9.184;2022-11-25T15:41:29;10.10;99.90
1297;DHT22;641;48.492;9.184;2022-11-25T15:43:58;10.20;99.90
1297;DHT22;641;48.492;9.184;2022-11-25T15:46:28;10.30;99.90
1297;DHT22;641;48.492;9.184;2022-11-25T15:48:59;10.30;99.90
1297;DHT22;641;48.492;9.184;2022-11-25T15:54:04;10.60;99.90
1297;DHT22;641;48.492;9.184;2022-11-25T15:56:36;10.50;99.90
1297;DHT22;641;48.492;9.184;2022-11-25T15:59:02;10.40;99.90
1297;DHT22;641;48.492;9.184;2022-11-25T16:01:28;10.30;99.90
1297;DHT22;641;48.492;9.184;2022-11-25T16:04:17;10.50;99.90
1297;DHT22;641;48.492;9.184;2022-11-25T16:06:55;10.20;99.90
1297;DHT22;641;48.492;9.184;2022-11-25T16:09:22;10.30;99.90
1297;DHT22;641;48.492;9.184;2022-11-25T16:11:49;10.40;99.90
1297;DHT22;641;48.492;9.184;2022-11-25T16:16:45;10.60;99.90
1297;DHT22;641;48.492;9.184;2022-11-25T16:19:15;10.50;99.90
1297;DHT22;641;48.492;9.184;2022-11-25T16:21:53;10.40;99.90
1297;DHT22;641;48.492;9.184;2022-11-25T16:27:12;10.60;99.90
1297;DHT22;641;48.492;9.184;2022-11-25T16:29:56;10.30;99.90
1297;DHT22;641;48.492;9.184;2022-11-25T16:32:24;10.20;99.90
1297;DHT22;641;48.492;9.184;2022-11-25T16:34:50;10.20;99.90
1297;DHT22;641;48.492;9.184;2022-11-25T16:37:16;10.20;99.90
1297;DHT22;641;48.492;9.184;2022-11-25T17:04:11;9.80;99.90
1297;DHT22;641;48.492;9.184;2022-11-25T17:06:37;9.80;99.90
1297;DHT22;641;48.492;9.184;2022-11-25T17:09:02;9.90;99.90
1297;DHT22;641;48.492;9.184;2022-11-25T17:11:32;9.70;99.90
1297;DHT22;641;48.492;9.184;2022-11-25T17:14:02;10.20;99.90
1297;DHT22;641;48.492;9.184;2022-11-25T17:16:29;10.00;99.90
1297;DHT22;641;48.492;9.184;2022-11-25T17:18:57;9.70;99.90
1297;DHT22;641;48.492;9.184;2022-11-25T17:21:24;9.60;99.90
1297;DHT22;641;48.492;9.184;2022-11-25T17:23:53;9.70;99.90
1297;DHT22;641;48.492;9.184;2022-11-25T17:26:23;9.40;99.90
1297;DHT22;641;48.492;9.184;2022-11-25T17:28:55;9.30;99.90
1297;DHT22;641;48.492;9.184;2022-11-25T17:31:27;9.20;99.90
1297;DHT22;641;48.492;9.184;2022-11-25T17:33:54;9.40;99.90
1297;DHT22;641;48.492;9.184;2022-11-25T17:36:34;9.00;99.90
1297;DHT22;641;48.492;9.184;2022-11-25T21:39:36;7.30;99.90
1297;DHT22;641;48.492;9.184;2022-11-25T21:42:21;7.20;99.90
1297;DHT22;641;48.492;9.184;2022-11-25T21:45:13;7.00;99.90
1297;DHT22;641;48.492;9.184;2022-11-25T21:47:40;7.10;99.90
1297;DHT22;641;48.492;9.184;2022-11-25T21:50:16;7.20;99.90
1297;DHT22;641;48.492;9.184;2022-11-25T21:52:42;7.00;99.90
1297;DHT22;641;48.492;9.184;2022-11-25T21:55:11;7.00;99.90
1297;DHT22;641;48.492;9.184;2022-11-25T21:57:38;6.90;99.90
1297;DHT22;641;48.492;9.184;2022-11-25T22:00:26;7.10;99.90
1297;DHT22;641;48.492;9.184;2022-11-25T22:02:51;6.90;99.90
1297;DHT22;641;48.492;9.184;2022-11-25T22:05:19;6.90;99.90
1297;DHT22;641;48.492;9.184;2022-11-25T22:07:45;6.80;99.90
1297;DHT22;641;48.492;9.184;2022-11-25T22:10:13;6.70;99.90
1297;DHT22;641;48.492;9.184;2022-11-25T22:12:40;6.60;99.90
1297;DHT22;641;48.492;9.184;2022-11-25T22:15:27;6.60;99.90
1297;DHT22;641;48.492;9.184;2022-11-25T22:17:55;6.70;99.90
1297;DHT22;641;48.492;9.184;2022-11-25T22:20:32;6.70;99.90
1297;DHT22;641;48.492;9.184;2022-11-25T22:22:59;6.80;99.90
1297;DHT22;641;48.492;9.184;2022-11-25T22:25:27;6.70;99.90
1297;DHT22;641;48.492;9.184;2022-11-25T22:27:53;6.80;99.90
1297;DHT22;641;48.492;9.184;2022-11-25T22:30:20;6.80;99.90
1297;DHT22;641;48.492;9.184;2022-11-25T22:32:49;6.80;99.90
1297;DHT22;641;48.492;9.184;2022-11-25T22:35:18;6.90;99.90
1297;DHT22;641;48.492;9.184;2022-11-25T22:37:45;6.80;99.90
1297;DHT22;641;48.492;9.184;2022-11-25T22:40:11;6.80;99.90
1297;DHT22;641;48.492;9.184;2022-11-25T22:42:37;6.80;99.90
1297;DHT22;641;48.492;9.184;2022-11-25T22:45:06;6.70;99.90
1297;DHT22;641;48.492;9.184;2022-11-25T22:47:41;6.60;99.90
1297;DHT22;641;48.492;9.184;2022-11-25T22:50:28;6.60;99.90
1297;DHT22;641;48.492;9.184;2022-11-25T22:52:55;6.60;99.90
1297;DHT22;641;48.492;9.184;2022-11-25T22:55:23;6.80;99.90
1297;DHT22;641;48.492;9.184;2022-11-25T22:57:51;6.60;99.90
1297;DHT22;641;48.492;9.184;2022-11-25T23:00:25;6.50;99.90
1297;DHT22;641;48.492;9.184;2022-11-25T23:02:54;6.50;99.90
1297;DHT22;641;48.492;9.184;2022-11-25T23:05:24;6.40;99.90
1297;DHT22;641;48.492;9.184;2022-11-25T23:07:50;6.30;99.90
1297;DHT22;641;48.492;9.184;2022-11-25T23:10:21;6.30;99.90
1297;DHT22;641;48.492;9.184;2022-11-25T23:12:47;6.30;99.90
1297;DHT22;641;48.492;9.184;2022-11-25T23:15:19;6.20;99.90
1297;DHT22;641;48.492;9.184;2022-11-25T23:17:54;6.20;99.90
1297;DHT22;641;48.492;9.184;2022-11-25T23:20:35;6.20;99.90
1297;DHT22;641;48.492;9.184;2022-11-25T23:23:09;6.20;99.90
1297;DHT22;641;48.492;9.184;2022-11-25T23:25:36;6.20;99.90
1297;DHT22;641;48.492;9.184;2022-11-25T23:28:02;6.20;99.90
1297;DHT22;641;48.492;9.184;2022-11-25T23:30:28;6.30;99.90
1297;DHT22;641;48.492;9.184;2022-11-25T23:32:55;6.50;99.90
1297;DHT22;641;48.492;9.184;2022-11-25T23:35:34;6.50;99.90
1297;DHT22;641;48.492;9.184;2022-11-25T23:38:01;6.90;99.90
1297;DHT22;641;48.492;9.184;2022-11-25T23:40:28;6.70;99.90
1297;DHT22;641;48.492;9.184;2022-11-25T23:42:53;6.70;99.90
1297;DHT22;641;48.492;9.184;2022-11-25T23:45:22;6.80;99.90
1297;DHT22;641;48.492;9.184;2022-11-25T23:47:50;6.90;99.90
1297;DHT22;641;48.492;9.184;2022-11-25T23:50:29;6.80;99.90
1297;DHT22;641;48.492;9.184;2022-11-25T23:53:05;7.00;99.90
1297;DHT22;641;48.492;9.184;2022-11-25T23:55:34;6.90;99.90
1297;DHT22;641;48.492;9.184;2022-11-25T23:58:03;7.20;99.90
